sensor_id;sensor_type;location;lat;lon;timestamp;P1;durP1;ratioP1;P2;durP2;ratioP2
11486;SDS011;10510;47.942;9.442;2022-10-16T00:00:36;4.00;;;2.63;;
11486;SDS011;10510;47.942;9.442;2022-10-16T00:02:38;9.32;;;2.92;;
11486;SDS011;10510;47.942;9.442;2022-10-16T00:04:39;7.13;;;3.05;;
11486;SDS011;10510;47.942;9.442;2022-10-16T00:06:39;7.13;;;3.22;;
11486;SDS011;10510;47.942;9.442;2022-10-16T00:08:40;4.78;;;2.42;;
11486;SDS011;10510;47.942;9.442;2022-10-16T00:10:40;4.05;;;2.53;;
11486;SDS011;10510;47.942;9.442;2022-10-16T00:12:41;9.68;;;2.97;;
11486;SDS011;10510;47.942;9.442;2022-10-16T00:14:41;7.38;;;2.72;;
11486;SDS011;10510;47.942;9.442;2022-10-16T00:16:43;5.97;;;2.30;;
11486;SDS011;10510;47.942;9.442;2022-10-16T00:18:44;4.05;;;2.47;;
11486;SDS011;10510;47.942;9.442;2022-10-16T00:20:44;5.78;;;2.90;;
11486;SDS011;10510;47.942;9.442;2022-10-16T00:22:44;4.55;;;2.17;;
11486;SDS011;10510;47.942;9.442;2022-10-16T00:24:45;9.90;;;2.70;;
11486;SDS011;10510;47.942;9.442;2022-10-16T00:26:45;4.97;;;2.28;;
11486;SDS011;10510;47.942;9.442;2022-10-16T00:28:49;4.47;;;2.13;;
11486;SDS011;10510;47.942;9.442;2022-10-16T00:30:50;2.90;;;2.20;;
11486;SDS011;10510;47.942;9.442;2022-10-16T00:32:51;5.38;;;1.95;;
11486;SDS011;10510;47.942;9.442;2022-10-16T00:34:52;6.55;;;2.55;;
11486;SDS011;10510;47.942;9.442;2022-10-16T00:36:54;3.22;;;2.03;;
11486;SDS011;10510;47.942;9.442;2022-10-16T00:38:55;7.32;;;2.22;;
11486;SDS011;10510;47.942;9.442;2022-10-16T00:40:59;8.05;;;2.33;;
11486;SDS011;10510;47.942;9.442;2022-10-16T00:43:00;5.22;;;2.50;;
11486;SDS011;10510;47.942;9.442;2022-10-16T00:45:00;4.28;;;1.90;;
11486;SDS011;10510;47.942;9.442;2022-10-16T00:47:01;3.47;;;2.55;;
11486;SDS011;10510;47.942;9.442;2022-10-16T00:49:02;5.65;;;2.60;;
11486;SDS011;10510;47.942;9.442;2022-10-16T00:51:17;3.22;;;1.80;;
11486;SDS011;10510;47.942;9.442;2022-10-16T00:53:21;3.80;;;2.00;;
11486;SDS011;10510;47.942;9.442;2022-10-16T00:55:23;3.25;;;2.10;;
11486;SDS011;10510;47.942;9.442;2022-10-16T00:57:24;5.75;;;2.30;;
11486;SDS011;10510;47.942;9.442;2022-10-16T00:59:29;3.38;;;2.13;;
11486;SDS011;10510;47.942;9.442;2022-10-16T01:01:36;4.13;;;1.92;;
11486;SDS011;10510;47.942;9.442;2022-10-16T01:03:36;4.97;;;2.35;;
11486;SDS011;10510;47.942;9.442;2022-10-16T01:05:42;6.70;;;1.90;;
11486;SDS011;10510;47.942;9.442;2022-10-16T01:14:22;3.55;;;1.90;;
11486;SDS011;10510;47.942;9.442;2022-10-16T01:16:38;4.43;;;2.05;;
11486;SDS011;10510;47.942;9.442;2022-10-16T01:18:48;3.95;;;1.60;;
11486;SDS011;10510;47.942;9.442;2022-10-16T01:20:58;5.85;;;1.80;;
11486;SDS011;10510;47.942;9.442;2022-10-16T01:25:11;5.45;;;1.80;;
11486;SDS011;10510;47.942;9.442;2022-10-16T01:27:30;3.78;;;1.88;;
11486;SDS011;10510;47.942;9.442;2022-10-16T01:32:45;2.25;;;1.60;;
11486;SDS011;10510;47.942;9.442;2022-10-16T01:34:44;7.25;;;2.33;;
11486;SDS011;10510;47.942;9.442;2022-10-16T01:37:09;3.22;;;2.00;;
11486;SDS011;10510;47.942;9.442;2022-10-16T01:39:14;6.30;;;2.20;;
11486;SDS011;10510;47.942;9.442;2022-10-16T01:43:28;5.93;;;1.92;;
11486;SDS011;10510;47.942;9.442;2022-10-16T01:45:33;4.15;;;2.20;;
11486;SDS011;10510;47.942;9.442;2022-10-16T01:47:36;5.53;;;2.30;;
11486;SDS011;10510;47.942;9.442;2022-10-16T01:49:38;6.68;;;3.03;;
11486;SDS011;10510;47.942;9.442;2022-10-16T01:51:39;5.07;;;2.20;;
11486;SDS011;10510;47.942;9.442;2022-10-16T01:53:48;4.00;;;2.22;;
11486;SDS011;10510;47.942;9.442;2022-10-16T01:57:54;5.43;;;2.05;;
11486;SDS011;10510;47.942;9.442;2022-10-16T01:59:56;4.35;;;2.10;;
11486;SDS011;10510;47.942;9.442;2022-10-16T02:02:01;3.85;;;1.95;;
11486;SDS011;10510;47.942;9.442;2022-10-16T02:04:17;3.10;;;2.00;;
11486;SDS011;10510;47.942;9.442;2022-10-16T02:06:21;5.05;;;2.13;;
11486;SDS011;10510;47.942;9.442;2022-10-16T02:08:23;4.75;;;1.90;;
11486;SDS011;10510;47.942;9.442;2022-10-16T02:10:25;5.15;;;2.30;;
11486;SDS011;10510;47.942;9.442;2022-10-16T02:12:31;9.85;;;2.20;;
11486;SDS011;10510;47.942;9.442;2022-10-16T02:14:37;7.75;;;2.42;;
11486;SDS011;10510;47.942;9.442;2022-10-16T02:16:40;7.20;;;1.85;;
11486;SDS011;10510;47.942;9.442;2022-10-16T02:18:43;3.88;;;2.10;;
11486;SDS011;10510;47.942;9.442;2022-10-16T02:20:54;6.93;;;2.08;;
11486;SDS011;10510;47.942;9.442;2022-10-16T02:22:59;4.60;;;1.75;;
11486;SDS011;10510;47.942;9.442;2022-10-16T02:25:11;8.05;;;2.42;;
11486;SDS011;10510;47.942;9.442;2022-10-16T02:27:25;2.97;;;2.00;;
11486;SDS011;10510;47.942;9.442;2022-10-16T02:29:29;3.60;;;2.00;;
11486;SDS011;10510;47.942;9.442;2022-10-16T02:31:32;3.53;;;1.70;;
11486;SDS011;10510;47.942;9.442;2022-10-16T02:33:37;5.95;;;2.20;;
11486;SDS011;10510;47.942;9.442;2022-10-16T02:35:42;5.63;;;1.90;;
11486;SDS011;10510;47.942;9.442;2022-10-16T02:37:45;3.00;;;1.85;;
11486;SDS011;10510;47.942;9.442;2022-10-16T02:39:47;2.85;;;2.42;;
11486;SDS011;10510;47.942;9.442;2022-10-16T02:41:47;7.78;;;2.10;;
11486;SDS011;10510;47.942;9.442;2022-10-16T02:43:48;4.03;;;2.00;;
11486;SDS011;10510;47.942;9.442;2022-10-16T02:45:49;2.88;;;2.10;;
11486;SDS011;10510;47.942;9.442;2022-10-16T02:47:49;3.80;;;1.52;;
11486;SDS011;10510;47.942;9.442;2022-10-16T02:49:49;4.43;;;1.85;;
11486;SDS011;10510;47.942;9.442;2022-10-16T02:51:50;4.55;;;2.10;;
11486;SDS011;10510;47.942;9.442;2022-10-16T02:53:50;3.80;;;2.10;;
11486;SDS011;10510;47.942;9.442;2022-10-16T02:55:50;3.42;;;2.13;;
11486;SDS011;10510;47.942;9.442;2022-10-16T02:57:50;5.43;;;3.80;;
11486;SDS011;10510;47.942;9.442;2022-10-16T02:59:51;8.57;;;3.63;;
11486;SDS011;10510;47.942;9.442;2022-10-16T03:01:51;7.40;;;3.95;;
11486;SDS011;10510;47.942;9.442;2022-10-16T03:03:51;6.88;;;3.60;;
11486;SDS011;10510;47.942;9.442;2022-10-16T03:05:52;9.77;;;4.78;;
11486;SDS011;10510;47.942;9.442;2022-10-16T03:07:52;8.38;;;4.35;;
11486;SDS011;10510;47.942;9.442;2022-10-16T03:09:52;8.95;;;5.55;;
11486;SDS011;10510;47.942;9.442;2022-10-16T03:11:53;4.85;;;3.50;;
11486;SDS011;10510;47.942;9.442;2022-10-16T03:13:53;6.05;;;4.10;;
11486;SDS011;10510;47.942;9.442;2022-10-16T03:15:53;6.00;;;3.38;;
11486;SDS011;10510;47.942;9.442;2022-10-16T03:17:54;3.55;;;3.25;;
11486;SDS011;10510;47.942;9.442;2022-10-16T03:19:55;4.53;;;1.98;;
11486;SDS011;10510;47.942;9.442;2022-10-16T03:21:55;4.00;;;2.38;;
11486;SDS011;10510;47.942;9.442;2022-10-16T03:23:55;5.10;;;2.05;;
11486;SDS011;10510;47.942;9.442;2022-10-16T03:25:55;6.50;;;1.80;;
11486;SDS011;10510;47.942;9.442;2022-10-16T03:27:56;6.05;;;3.10;;
11486;SDS011;10510;47.942;9.442;2022-10-16T03:29:56;10.32;;;5.82;;
11486;SDS011;10510;47.942;9.442;2022-10-16T03:31:56;7.60;;;3.88;;
11486;SDS011;10510;47.942;9.442;2022-10-16T03:33:56;12.15;;;3.40;;
11486;SDS011;10510;47.942;9.442;2022-10-16T03:35:57;6.68;;;2.50;;
11486;SDS011;10510;47.942;9.442;2022-10-16T03:37:57;4.03;;;2.95;;
11486;SDS011;10510;47.942;9.442;2022-10-16T03:39:57;7.22;;;1.80;;
11486;SDS011;10510;47.942;9.442;2022-10-16T03:41:58;6.25;;;2.95;;
11486;SDS011;10510;47.942;9.442;2022-10-16T03:43:58;4.93;;;2.25;;
11486;SDS011;10510;47.942;9.442;2022-10-16T03:45:58;3.58;;;1.90;;
11486;SDS011;10510;47.942;9.442;2022-10-16T03:47:58;2.95;;;2.17;;
11486;SDS011;10510;47.942;9.442;2022-10-16T03:49:59;3.00;;;1.80;;
11486;SDS011;10510;47.942;9.442;2022-10-16T03:51:59;16.38;;;1.80;;
11486;SDS011;10510;47.942;9.442;2022-10-16T03:54:00;4.32;;;2.15;;
11486;SDS011;10510;47.942;9.442;2022-10-16T03:56:00;3.25;;;1.90;;
11486;SDS011;10510;47.942;9.442;2022-10-16T03:58:00;5.85;;;2.13;;
11486;SDS011;10510;47.942;9.442;2022-10-16T04:00:01;3.92;;;2.00;;
11486;SDS011;10510;47.942;9.442;2022-10-16T04:02:02;5.32;;;2.10;;
11486;SDS011;10510;47.942;9.442;2022-10-16T04:04:02;5.03;;;1.90;;
11486;SDS011;10510;47.942;9.442;2022-10-16T04:06:03;6.88;;;2.40;;
11486;SDS011;10510;47.942;9.442;2022-10-16T04:08:03;3.53;;;2.20;;
11486;SDS011;10510;47.942;9.442;2022-10-16T04:10:04;2.75;;;1.98;;
11486;SDS011;10510;47.942;9.442;2022-10-16T04:12:04;4.18;;;1.73;;
11486;SDS011;10510;47.942;9.442;2022-10-16T04:14:05;2.92;;;1.88;;
11486;SDS011;10510;47.942;9.442;2022-10-16T04:16:05;7.93;;;1.90;;
11486;SDS011;10510;47.942;9.442;2022-10-16T04:18:05;4.72;;;1.90;;
11486;SDS011;10510;47.942;9.442;2022-10-16T04:20:06;6.65;;;2.63;;
11486;SDS011;10510;47.942;9.442;2022-10-16T04:22:06;2.55;;;1.70;;
11486;SDS011;10510;47.942;9.442;2022-10-16T04:24:07;2.13;;;1.70;;
11486;SDS011;10510;47.942;9.442;2022-10-16T04:26:07;4.57;;;2.03;;
11486;SDS011;10510;47.942;9.442;2022-10-16T04:28:07;4.60;;;2.10;;
11486;SDS011;10510;47.942;9.442;2022-10-16T04:30:08;11.75;;;2.50;;
11486;SDS011;10510;47.942;9.442;2022-10-16T04:32:08;3.60;;;2.10;;
11486;SDS011;10510;47.942;9.442;2022-10-16T04:34:09;6.25;;;1.92;;
11486;SDS011;10510;47.942;9.442;2022-10-16T04:36:09;5.75;;;2.30;;
11486;SDS011;10510;47.942;9.442;2022-10-16T04:38:10;2.13;;;1.67;;
11486;SDS011;10510;47.942;9.442;2022-10-16T04:40:10;5.03;;;2.17;;
11486;SDS011;10510;47.942;9.442;2022-10-16T04:42:10;12.15;;;2.72;;
11486;SDS011;10510;47.942;9.442;2022-10-16T04:44:11;2.97;;;2.00;;
11486;SDS011;10510;47.942;9.442;2022-10-16T04:46:11;7.63;;;2.20;;
11486;SDS011;10510;47.942;9.442;2022-10-16T04:48:12;3.67;;;2.00;;
11486;SDS011;10510;47.942;9.442;2022-10-16T04:50:12;5.25;;;2.20;;
11486;SDS011;10510;47.942;9.442;2022-10-16T04:52:12;7.80;;;2.30;;
11486;SDS011;10510;47.942;9.442;2022-10-16T04:54:13;4.00;;;2.08;;
11486;SDS011;10510;47.942;9.442;2022-10-16T04:56:13;5.22;;;2.13;;
11486;SDS011;10510;47.942;9.442;2022-10-16T04:58:14;4.82;;;2.00;;
11486;SDS011;10510;47.942;9.442;2022-10-16T05:00:15;2.95;;;1.75;;
11486;SDS011;10510;47.942;9.442;2022-10-16T05:02:15;4.82;;;2.10;;
11486;SDS011;10510;47.942;9.442;2022-10-16T05:04:15;4.13;;;2.03;;
11486;SDS011;10510;47.942;9.442;2022-10-16T05:06:16;5.47;;;2.90;;
11486;SDS011;10510;47.942;9.442;2022-10-16T05:08:16;4.68;;;2.75;;
11486;SDS011;10510;47.942;9.442;2022-10-16T05:10:16;2.90;;;2.05;;
11486;SDS011;10510;47.942;9.442;2022-10-16T05:12:17;3.20;;;2.05;;
11486;SDS011;10510;47.942;9.442;2022-10-16T05:14:17;6.47;;;2.30;;
11486;SDS011;10510;47.942;9.442;2022-10-16T05:16:17;2.78;;;1.83;;
11486;SDS011;10510;47.942;9.442;2022-10-16T05:18:18;3.53;;;1.70;;
11486;SDS011;10510;47.942;9.442;2022-10-16T05:20:18;2.55;;;1.75;;
11486;SDS011;10510;47.942;9.442;2022-10-16T05:22:18;4.45;;;2.00;;
11486;SDS011;10510;47.942;9.442;2022-10-16T05:24:19;6.15;;;1.80;;
11486;SDS011;10510;47.942;9.442;2022-10-16T05:26:19;8.73;;;2.25;;
11486;SDS011;10510;47.942;9.442;2022-10-16T05:28:19;11.75;;;1.90;;
11486;SDS011;10510;47.942;9.442;2022-10-16T05:30:19;3.42;;;2.15;;
11486;SDS011;10510;47.942;9.442;2022-10-16T05:32:20;2.65;;;1.63;;
11486;SDS011;10510;47.942;9.442;2022-10-16T05:34:20;9.45;;;2.10;;
11486;SDS011;10510;47.942;9.442;2022-10-16T05:36:21;4.00;;;1.77;;
11486;SDS011;10510;47.942;9.442;2022-10-16T05:38:21;2.88;;;1.77;;
11486;SDS011;10510;47.942;9.442;2022-10-16T05:40:22;4.93;;;1.88;;
11486;SDS011;10510;47.942;9.442;2022-10-16T05:42:22;8.57;;;1.92;;
11486;SDS011;10510;47.942;9.442;2022-10-16T05:44:22;8.55;;;2.72;;
11486;SDS011;10510;47.942;9.442;2022-10-16T05:46:22;3.30;;;2.00;;
11486;SDS011;10510;47.942;9.442;2022-10-16T05:48:23;3.58;;;2.40;;
11486;SDS011;10510;47.942;9.442;2022-10-16T05:50:24;6.25;;;2.47;;
11486;SDS011;10510;47.942;9.442;2022-10-16T05:52:24;5.45;;;2.13;;
11486;SDS011;10510;47.942;9.442;2022-10-16T05:54:24;10.02;;;2.60;;
11486;SDS011;10510;47.942;9.442;2022-10-16T05:56:25;3.28;;;2.03;;
11486;SDS011;10510;47.942;9.442;2022-10-16T05:58:25;5.55;;;2.00;;
11486;SDS011;10510;47.942;9.442;2022-10-16T06:00:29;3.90;;;2.35;;
11486;SDS011;10510;47.942;9.442;2022-10-16T06:02:29;6.38;;;2.17;;
11486;SDS011;10510;47.942;9.442;2022-10-16T06:04:29;5.05;;;2.35;;
11486;SDS011;10510;47.942;9.442;2022-10-16T06:06:30;5.53;;;2.05;;
11486;SDS011;10510;47.942;9.442;2022-10-16T06:08:30;6.60;;;2.15;;
11486;SDS011;10510;47.942;9.442;2022-10-16T06:10:31;6.93;;;2.55;;
11486;SDS011;10510;47.942;9.442;2022-10-16T06:12:32;6.75;;;2.70;;
11486;SDS011;10510;47.942;9.442;2022-10-16T06:14:32;8.30;;;2.45;;
11486;SDS011;10510;47.942;9.442;2022-10-16T06:16:33;7.28;;;2.50;;
11486;SDS011;10510;47.942;9.442;2022-10-16T06:18:34;7.72;;;2.35;;
11486;SDS011;10510;47.942;9.442;2022-10-16T06:20:35;5.13;;;2.50;;
11486;SDS011;10510;47.942;9.442;2022-10-16T06:22:36;4.72;;;2.10;;
11486;SDS011;10510;47.942;9.442;2022-10-16T06:24:36;6.45;;;2.35;;
11486;SDS011;10510;47.942;9.442;2022-10-16T06:26:37;7.30;;;2.00;;
11486;SDS011;10510;47.942;9.442;2022-10-16T06:28:38;10.75;;;2.00;;
11486;SDS011;10510;47.942;9.442;2022-10-16T06:30:39;7.78;;;1.98;;
11486;SDS011;10510;47.942;9.442;2022-10-16T06:32:39;10.50;;;1.98;;
11486;SDS011;10510;47.942;9.442;2022-10-16T06:34:39;2.55;;;1.67;;
11486;SDS011;10510;47.942;9.442;2022-10-16T06:36:41;6.43;;;1.67;;
11486;SDS011;10510;47.942;9.442;2022-10-16T06:38:41;14.75;;;1.88;;
11486;SDS011;10510;47.942;9.442;2022-10-16T06:40:42;4.03;;;2.05;;
11486;SDS011;10510;47.942;9.442;2022-10-16T06:42:43;4.13;;;1.83;;
11486;SDS011;10510;47.942;9.442;2022-10-16T06:44:43;9.25;;;2.17;;
11486;SDS011;10510;47.942;9.442;2022-10-16T06:46:43;4.28;;;2.67;;
11486;SDS011;10510;47.942;9.442;2022-10-16T06:48:44;1.88;;;1.38;;
11486;SDS011;10510;47.942;9.442;2022-10-16T06:50:44;2.70;;;1.65;;
11486;SDS011;10510;47.942;9.442;2022-10-16T06:52:55;2.50;;;1.73;;
11486;SDS011;10510;47.942;9.442;2022-10-16T06:54:55;5.07;;;1.38;;
11486;SDS011;10510;47.942;9.442;2022-10-16T06:56:55;3.25;;;1.65;;
11486;SDS011;10510;47.942;9.442;2022-10-16T06:58:56;4.43;;;1.80;;
11486;SDS011;10510;47.942;9.442;2022-10-16T07:00:56;3.20;;;1.60;;
11486;SDS011;10510;47.942;9.442;2022-10-16T07:02:57;5.25;;;1.50;;
11486;SDS011;10510;47.942;9.442;2022-10-16T07:04:57;6.93;;;4.40;;
11486;SDS011;10510;47.942;9.442;2022-10-16T07:06:59;17.63;;;5.22;;
11486;SDS011;10510;47.942;9.442;2022-10-16T07:09:01;14.82;;;4.15;;
11486;SDS011;10510;47.942;9.442;2022-10-16T07:11:05;6.55;;;3.25;;
11486;SDS011;10510;47.942;9.442;2022-10-16T07:13:08;12.30;;;5.65;;
11486;SDS011;10510;47.942;9.442;2022-10-16T07:15:08;7.38;;;3.05;;
11486;SDS011;10510;47.942;9.442;2022-10-16T07:17:08;9.57;;;4.88;;
11486;SDS011;10510;47.942;9.442;2022-10-16T07:19:09;10.88;;;5.47;;
11486;SDS011;10510;47.942;9.442;2022-10-16T07:21:16;8.13;;;3.95;;
11486;SDS011;10510;47.942;9.442;2022-10-16T07:23:18;6.53;;;3.40;;
11486;SDS011;10510;47.942;9.442;2022-10-16T07:25:18;5.70;;;2.42;;
11486;SDS011;10510;47.942;9.442;2022-10-16T07:27:18;4.80;;;1.80;;
11486;SDS011;10510;47.942;9.442;2022-10-16T07:29:19;4.82;;;1.35;;
11486;SDS011;10510;47.942;9.442;2022-10-16T07:31:21;3.45;;;1.50;;
11486;SDS011;10510;47.942;9.442;2022-10-16T07:33:22;2.28;;;1.10;;
11486;SDS011;10510;47.942;9.442;2022-10-16T07:35:22;1.67;;;1.20;;
11486;SDS011;10510;47.942;9.442;2022-10-16T07:37:23;3.45;;;1.10;;
11486;SDS011;10510;47.942;9.442;2022-10-16T07:39:23;4.38;;;1.17;;
11486;SDS011;10510;47.942;9.442;2022-10-16T07:41:23;4.20;;;1.42;;
11486;SDS011;10510;47.942;9.442;2022-10-16T07:43:23;1.75;;;1.17;;
11486;SDS011;10510;47.942;9.442;2022-10-16T07:45:24;4.30;;;0.70;;
11486;SDS011;10510;47.942;9.442;2022-10-16T07:47:24;7.25;;;1.00;;
11486;SDS011;10510;47.942;9.442;2022-10-16T07:49:24;0.95;;;0.85;;
11486;SDS011;10510;47.942;9.442;2022-10-16T07:51:25;2.60;;;1.08;;
11486;SDS011;10510;47.942;9.442;2022-10-16T07:53:27;3.05;;;1.20;;
11486;SDS011;10510;47.942;9.442;2022-10-16T07:55:27;2.08;;;1.05;;
11486;SDS011;10510;47.942;9.442;2022-10-16T07:57:27;2.80;;;1.00;;
11486;SDS011;10510;47.942;9.442;2022-10-16T07:59:28;1.67;;;1.00;;
11486;SDS011;10510;47.942;9.442;2022-10-16T08:01:28;2.50;;;0.88;;
11486;SDS011;10510;47.942;9.442;2022-10-16T08:03:28;8.40;;;1.13;;
11486;SDS011;10510;47.942;9.442;2022-10-16T08:05:29;1.90;;;1.10;;
11486;SDS011;10510;47.942;9.442;2022-10-16T08:07:31;1.42;;;1.13;;
11486;SDS011;10510;47.942;9.442;2022-10-16T08:09:31;3.22;;;0.80;;
11486;SDS011;10510;47.942;9.442;2022-10-16T08:11:31;2.83;;;0.90;;
11486;SDS011;10510;47.942;9.442;2022-10-16T08:13:32;2.75;;;0.98;;
11486;SDS011;10510;47.942;9.442;2022-10-16T08:15:32;3.08;;;0.73;;
11486;SDS011;10510;47.942;9.442;2022-10-16T08:17:33;1.40;;;1.05;;
11486;SDS011;10510;47.942;9.442;2022-10-16T08:19:33;4.72;;;0.80;;
11486;SDS011;10510;47.942;9.442;2022-10-16T08:21:34;2.10;;;0.73;;
11486;SDS011;10510;47.942;9.442;2022-10-16T08:23:34;5.30;;;1.00;;
11486;SDS011;10510;47.942;9.442;2022-10-16T08:25:35;1.83;;;1.20;;
11486;SDS011;10510;47.942;9.442;2022-10-16T08:27:36;1.92;;;1.10;;
11486;SDS011;10510;47.942;9.442;2022-10-16T08:29:36;2.55;;;1.20;;
11486;SDS011;10510;47.942;9.442;2022-10-16T08:31:38;1.35;;;0.90;;
11486;SDS011;10510;47.942;9.442;2022-10-16T08:33:39;1.20;;;0.85;;
11486;SDS011;10510;47.942;9.442;2022-10-16T08:35:41;1.80;;;0.98;;
11486;SDS011;10510;47.942;9.442;2022-10-16T08:37:41;6.10;;;0.90;;
11486;SDS011;10510;47.942;9.442;2022-10-16T08:39:42;1.75;;;0.70;;
11486;SDS011;10510;47.942;9.442;2022-10-16T08:43:54;3.78;;;0.65;;
11486;SDS011;10510;47.942;9.442;2022-10-16T08:50:52;1.23;;;0.63;;
11486;SDS011;10510;47.942;9.442;2022-10-16T08:52:52;4.82;;;1.02;;
11486;SDS011;10510;47.942;9.442;2022-10-16T08:54:54;1.13;;;0.80;;
11486;SDS011;10510;47.942;9.442;2022-10-16T08:57:00;5.05;;;0.93;;
11486;SDS011;10510;47.942;9.442;2022-10-16T08:59:11;3.08;;;0.70;;
11486;SDS011;10510;47.942;9.442;2022-10-16T09:01:15;1.83;;;0.73;;
11486;SDS011;10510;47.942;9.442;2022-10-16T09:05:57;2.17;;;0.77;;
11486;SDS011;10510;47.942;9.442;2022-10-16T09:08:16;1.30;;;1.00;;
11486;SDS011;10510;47.942;9.442;2022-10-16T09:12:37;1.55;;;0.73;;
11486;SDS011;10510;47.942;9.442;2022-10-16T09:17:01;1.65;;;0.68;;
11486;SDS011;10510;47.942;9.442;2022-10-16T09:21:32;1.77;;;0.70;;
11486;SDS011;10510;47.942;9.442;2022-10-16T09:23:36;1.27;;;0.60;;
11486;SDS011;10510;47.942;9.442;2022-10-16T09:25:37;1.17;;;0.60;;
11486;SDS011;10510;47.942;9.442;2022-10-16T09:27:41;3.03;;;1.40;;
11486;SDS011;10510;47.942;9.442;2022-10-16T09:29:44;6.78;;;1.50;;
11486;SDS011;10510;47.942;9.442;2022-10-16T09:31:44;1.38;;;0.82;;
11486;SDS011;10510;47.942;9.442;2022-10-16T09:33:47;1.25;;;0.60;;
11486;SDS011;10510;47.942;9.442;2022-10-16T09:35:53;2.63;;;0.70;;
11486;SDS011;10510;47.942;9.442;2022-10-16T09:37:55;2.03;;;0.82;;
11486;SDS011;10510;47.942;9.442;2022-10-16T09:39:56;0.80;;;0.68;;
11486;SDS011;10510;47.942;9.442;2022-10-16T09:41:56;3.65;;;0.88;;
11486;SDS011;10510;47.942;9.442;2022-10-16T09:43:57;1.73;;;0.60;;
11486;SDS011;10510;47.942;9.442;2022-10-16T09:46:01;2.80;;;0.98;;
11486;SDS011;10510;47.942;9.442;2022-10-16T09:48:13;2.30;;;0.70;;
11486;SDS011;10510;47.942;9.442;2022-10-16T09:50:20;3.22;;;1.13;;
11486;SDS011;10510;47.942;9.442;2022-10-16T09:52:24;6.75;;;0.90;;
11486;SDS011;10510;47.942;9.442;2022-10-16T09:54:25;3.38;;;0.82;;
11486;SDS011;10510;47.942;9.442;2022-10-16T09:56:29;13.70;;;1.95;;
11486;SDS011;10510;47.942;9.442;2022-10-16T09:58:36;3.75;;;1.23;;
11486;SDS011;10510;47.942;9.442;2022-10-16T10:00:37;1.75;;;0.80;;
11486;SDS011;10510;47.942;9.442;2022-10-16T10:02:41;2.67;;;1.23;;
11486;SDS011;10510;47.942;9.442;2022-10-16T10:04:44;1.13;;;0.90;;
11486;SDS011;10510;47.942;9.442;2022-10-16T10:06:51;5.90;;;1.30;;
11486;SDS011;10510;47.942;9.442;2022-10-16T10:08:58;3.35;;;1.48;;
11486;SDS011;10510;47.942;9.442;2022-10-16T10:11:04;1.85;;;1.13;;
11486;SDS011;10510;47.942;9.442;2022-10-16T10:13:14;2.00;;;0.98;;
11486;SDS011;10510;47.942;9.442;2022-10-16T10:15:19;3.22;;;0.88;;
11486;SDS011;10510;47.942;9.442;2022-10-16T10:17:22;3.92;;;0.90;;
11486;SDS011;10510;47.942;9.442;2022-10-16T10:19:26;0.95;;;0.60;;
11486;SDS011;10510;47.942;9.442;2022-10-16T10:21:27;8.48;;;1.00;;
11486;SDS011;10510;47.942;9.442;2022-10-16T10:23:28;0.57;;;0.50;;
11486;SDS011;10510;47.942;9.442;2022-10-16T10:25:41;7.45;;;1.00;;
11486;SDS011;10510;47.942;9.442;2022-10-16T10:32:27;2.00;;;1.40;;
11486;SDS011;10510;47.942;9.442;2022-10-16T10:36:56;3.78;;;2.45;;
11486;SDS011;10510;47.942;9.442;2022-10-16T10:46:00;0.73;;;0.55;;
11486;SDS011;10510;47.942;9.442;2022-10-16T10:48:06;1.45;;;0.70;;
11486;SDS011;10510;47.942;9.442;2022-10-16T10:50:35;1.95;;;0.90;;
11486;SDS011;10510;47.942;9.442;2022-10-16T10:52:58;2.35;;;0.50;;
11486;SDS011;10510;47.942;9.442;2022-10-16T10:55:09;4.93;;;1.30;;
11486;SDS011;10510;47.942;9.442;2022-10-16T10:57:20;3.22;;;0.70;;
11486;SDS011;10510;47.942;9.442;2022-10-16T11:06:32;2.53;;;0.82;;
11486;SDS011;10510;47.942;9.442;2022-10-16T11:08:49;4.07;;;0.63;;
11486;SDS011;10510;47.942;9.442;2022-10-16T11:11:00;7.85;;;1.10;;
11486;SDS011;10510;47.942;9.442;2022-10-16T11:13:14;0.70;;;0.55;;
11486;SDS011;10510;47.942;9.442;2022-10-16T11:15:30;2.03;;;0.75;;
11486;SDS011;10510;47.942;9.442;2022-10-16T11:17:35;3.35;;;0.80;;
11486;SDS011;10510;47.942;9.442;2022-10-16T11:19:41;1.98;;;0.60;;
11486;SDS011;10510;47.942;9.442;2022-10-16T11:22:07;2.03;;;0.60;;
11486;SDS011;10510;47.942;9.442;2022-10-16T11:24:21;2.65;;;0.52;;
11486;SDS011;10510;47.942;9.442;2022-10-16T11:26:33;1.77;;;0.77;;
11486;SDS011;10510;47.942;9.442;2022-10-16T11:28:42;2.55;;;0.68;;
11486;SDS011;10510;47.942;9.442;2022-10-16T11:30:53;0.50;;;0.50;;
11486;SDS011;10510;47.942;9.442;2022-10-16T11:35:14;0.70;;;0.60;;
11486;SDS011;10510;47.942;9.442;2022-10-16T11:37:27;1.90;;;0.73;;
11486;SDS011;10510;47.942;9.442;2022-10-16T11:39:32;0.75;;;0.55;;
11486;SDS011;10510;47.942;9.442;2022-10-16T11:41:34;1.75;;;0.50;;
11486;SDS011;10510;47.942;9.442;2022-10-16T11:43:43;8.13;;;0.60;;
11486;SDS011;10510;47.942;9.442;2022-10-16T11:45:57;2.60;;;0.65;;
11486;SDS011;10510;47.942;9.442;2022-10-16T11:48:08;3.00;;;0.70;;
11486;SDS011;10510;47.942;9.442;2022-10-16T11:50:33;0.82;;;0.70;;
11486;SDS011;10510;47.942;9.442;2022-10-16T11:53:01;1.88;;;0.50;;
11486;SDS011;10510;47.942;9.442;2022-10-16T11:57:22;3.45;;;0.47;;
11486;SDS011;10510;47.942;9.442;2022-10-16T12:01:42;1.20;;;0.60;;
11486;SDS011;10510;47.942;9.442;2022-10-16T12:08:08;2.45;;;0.60;;
11486;SDS011;10510;47.942;9.442;2022-10-16T12:10:21;3.40;;;0.57;;
11486;SDS011;10510;47.942;9.442;2022-10-16T12:14:47;2.28;;;0.60;;
11486;SDS011;10510;47.942;9.442;2022-10-16T12:16:51;2.50;;;0.50;;
11486;SDS011;10510;47.942;9.442;2022-10-16T12:19:03;1.35;;;0.75;;
11486;SDS011;10510;47.942;9.442;2022-10-16T12:21:12;1.02;;;0.60;;
11486;SDS011;10510;47.942;9.442;2022-10-16T12:23:19;1.35;;;0.60;;
11486;SDS011;10510;47.942;9.442;2022-10-16T12:25:26;0.40;;;0.40;;
11486;SDS011;10510;47.942;9.442;2022-10-16T12:27:32;0.60;;;0.50;;
11486;SDS011;10510;47.942;9.442;2022-10-16T12:31:37;1.15;;;0.57;;
11486;SDS011;10510;47.942;9.442;2022-10-16T12:33:58;3.17;;;1.10;;
11486;SDS011;10510;47.942;9.442;2022-10-16T12:36:02;2.40;;;0.50;;
11486;SDS011;10510;47.942;9.442;2022-10-16T12:38:08;3.25;;;0.50;;
11486;SDS011;10510;47.942;9.442;2022-10-16T12:40:23;1.05;;;0.47;;
11486;SDS011;10510;47.942;9.442;2022-10-16T12:44:31;3.70;;;0.83;;
11486;SDS011;10510;47.942;9.442;2022-10-16T12:46:35;3.50;;;0.60;;
11486;SDS011;10510;47.942;9.442;2022-10-16T12:48:39;1.38;;;0.50;;
11486;SDS011;10510;47.942;9.442;2022-10-16T12:50:41;3.65;;;0.40;;
11486;SDS011;10510;47.942;9.442;2022-10-16T12:52:41;5.18;;;0.50;;
11486;SDS011;10510;47.942;9.442;2022-10-16T12:54:44;10.00;;;0.85;;
11486;SDS011;10510;47.942;9.442;2022-10-16T12:59:13;1.00;;;0.68;;
11486;SDS011;10510;47.942;9.442;2022-10-16T13:03:54;1.42;;;0.50;;
11486;SDS011;10510;47.942;9.442;2022-10-16T13:10:40;0.85;;;0.50;;
11486;SDS011;10510;47.942;9.442;2022-10-16T13:16:17;0.60;;;0.40;;
11486;SDS011;10510;47.942;9.442;2022-10-16T13:20:43;0.85;;;0.55;;
11486;SDS011;10510;47.942;9.442;2022-10-16T13:28:06;4.78;;;0.50;;
11486;SDS011;10510;47.942;9.442;2022-10-16T13:30:10;0.93;;;0.50;;
11486;SDS011;10510;47.942;9.442;2022-10-16T13:32:22;4.40;;;1.50;;
11486;SDS011;10510;47.942;9.442;2022-10-16T13:34:22;2.15;;;0.80;;
11486;SDS011;10510;47.942;9.442;2022-10-16T13:36:23;0.75;;;0.50;;
11486;SDS011;10510;47.942;9.442;2022-10-16T13:38:26;1.30;;;0.50;;
11486;SDS011;10510;47.942;9.442;2022-10-16T13:40:28;1.23;;;0.50;;
11486;SDS011;10510;47.942;9.442;2022-10-16T13:42:28;1.08;;;0.75;;
11486;SDS011;10510;47.942;9.442;2022-10-16T13:44:30;0.70;;;0.57;;
11486;SDS011;10510;47.942;9.442;2022-10-16T13:46:36;2.95;;;0.70;;
11486;SDS011;10510;47.942;9.442;2022-10-16T13:48:37;1.92;;;0.68;;
11486;SDS011;10510;47.942;9.442;2022-10-16T13:50:37;1.20;;;0.52;;
11486;SDS011;10510;47.942;9.442;2022-10-16T13:52:38;0.40;;;0.32;;
11486;SDS011;10510;47.942;9.442;2022-10-16T13:54:38;3.53;;;0.60;;